Current Weather

Chicago Midway Intl

Chicago, Illinois (KMDW)

Report from: Wednesday, May 29, 2024 3:19 AM CDT
Current time: Wednesday, May 29, 2024 3:51 AM CDT

Nearby weather – Weather history – Daily summaries
Weather forecast

Present weatherLight rain
Temperature13.3°C (55.9°F)
Dew point10.6°C (51.1°F)
Winds 10 kts (5.1 m/s, 11.5 mph) North (350°)
Visibility10 mi. (16.1 km)
Clouds Scattered clouds 1,500 ft. (457 m)
Ceiling: Broken clouds 4,500 ft. (1,372 m)
Overcast 6,000 ft. (1,829 m)
Altimeter30.06 in.Hg (1018 mB)
Precipitiation0.01 in. (0 mm)
Precip. events Rain began 3:04 AM
Relative humidity84 %
Density altitude-180 ft. (-55 m)
Remarks System requires maintenance
Automated weather observing station with precipitation discriminator
Flight conditions Visual Meteorological Conditions
Raw dataKMDW 290819Z 35010KT 10SM -RA SCT015 BKN045 OVC060 13/11 A3006 RMK AO2 RAB04 P0001 T01330106 $
An error has occurred. This application may no longer respond until reloaded. Reload 🗙